Terminal Aerodrome Forecast
Issued by NWS

Home | Current Version | Previous Version | Text Only | Print | Product List | Glossary On
Versions: 1 2 3 4 5 6 7 8 9 10 11 12 13 14 15 16 17 18 19 20
000
FTAK31 PANC 030019 AAA
TAFAAQ
TAF AMD
PAAQ 030019Z 0300/0324 VRB06KT 2SM -SN BR SCT012 OVC022
      TEMPO 0300/0304 1/2SM SN FZFG VV008
     FM030600 01005G15KT 3SM -SN BR SCT015 OVC025
     FM031200 01012G20KT P6SM VCSH SCT025 OVC045=

USA.gov is the U.S. government's official web portal to all federal, state and local government web resources and services.